createdAt,value
2024-03-11T00:04:25.006Z,14.43
2024-03-11T00:09:29.020Z,14.85
2024-03-11T00:14:27.286Z,15.13
2024-03-11T00:19:24.300Z,15.43
2024-03-11T00:24:21.130Z,12.98
2024-03-11T00:29:19.461Z,15.25
2024-03-11T00:34:17.573Z,12.93
2024-03-11T00:39:16.112Z,13.93
2024-03-11T00:44:16.017Z,13.88
2024-03-11T00:49:13.656Z,15.98
2024-03-11T00:54:10.542Z,13.85
2024-03-11T00:59:07.606Z,13.85
2024-03-11T01:04:09.776Z,14.93
2024-03-11T01:09:07.623Z,15.88
2024-03-11T01:14:05.923Z,15.57
2024-03-11T01:19:02.827Z,15.73
2024-03-11T01:23:59.798Z,16.45
2024-03-11T01:28:57.406Z,14.63
2024-03-11T01:33:54.194Z,15.05
2024-03-11T01:38:51.751Z,20.30
2024-03-11T01:43:48.682Z,24.63
2024-03-11T01:48:46.499Z,24.52
2024-03-11T01:53:44.078Z,19.98
2024-03-11T01:58:47.126Z,27.02
2024-03-11T02:03:44.148Z,25.35
2024-03-11T02:08:43.211Z,27.27
2024-03-11T02:13:40.131Z,52.13
2024-03-11T02:18:37.135Z,41.95
2024-03-11T02:23:34.790Z,86.82
2024-03-11T02:28:31.605Z,34.55
2024-03-11T02:33:28.513Z,61.78
2024-03-11T02:38:26.398Z,61.28
2024-03-11T02:43:27.165Z,35.47
2024-03-11T02:48:24.277Z,26.02
2024-03-11T02:53:21.201Z,25.20
2024-03-11T02:58:18.759Z,22.52
2024-03-11T03:03:17.608Z,21.55
2024-03-11T03:08:15.274Z,18.42
2024-03-11T03:13:12.570Z,17.30
2024-03-11T03:18:09.648Z,19.40
2024-03-11T03:23:07.529Z,21.13
2024-03-11T03:28:06.273Z,18.95
2024-03-11T03:33:04.944Z,16.00
2024-03-11T03:38:02.042Z,19.45
2024-03-11T03:42:59.701Z,18.35
2024-03-11T03:47:56.658Z,18.13
2024-03-11T03:52:54.150Z,19.58
2024-03-11T03:57:51.374Z,24.75
2024-03-11T04:02:51.357Z,16.10
2024-03-11T04:07:48.747Z,19.85
2024-03-11T04:12:49.830Z,19.35
2024-03-11T04:17:49.678Z,28.95
2024-03-11T04:22:50.095Z,26.52
2024-03-11T04:27:48.411Z,24.92
2024-03-11T04:32:52.261Z,26.38
2024-03-11T04:37:50.375Z,34.15
2024-03-11T04:42:47.490Z,24.77
2024-03-11T04:47:44.695Z,25.30
2024-03-11T04:52:41.621Z,24.00
2024-03-11T04:57:39.546Z,27.52
2024-03-11T05:02:39.458Z,23.60
2024-03-11T05:07:36.742Z,19.63
2024-03-11T05:12:33.657Z,19.67
2024-03-11T05:17:31.312Z,21.48
2024-03-11T05:22:29.442Z,19.88
2024-03-11T05:27:26.459Z,18.77
2024-03-11T05:32:23.511Z,17.92
2024-03-11T05:37:24.402Z,18.25
2024-03-11T05:42:21.565Z,20.50
2024-03-11T05:47:18.536Z,19.30
2024-03-11T05:52:15.615Z,23.75
2024-03-11T05:57:13.762Z,19.88
2024-03-11T06:02:12.258Z,20.25
2024-03-11T06:07:09.886Z,21.98
2024-03-11T06:12:10.911Z,17.17
2024-03-11T06:17:11.185Z,21.25
2024-03-11T06:22:10.700Z,15.68
2024-03-11T06:27:07.610Z,18.13
2024-03-11T06:32:06.141Z,18.13
2024-03-11T06:37:04.156Z,14.80
2024-03-11T06:42:04.390Z,19.75
2024-03-11T06:47:01.747Z,17.38
2024-03-11T06:51:58.820Z,17.10
2024-03-11T06:56:59.596Z,16.38
2024-03-11T07:01:57.446Z,18.63
2024-03-11T07:06:54.676Z,22.67
2024-03-11T07:11:51.913Z,25.65
2024-03-11T07:16:51.109Z,20.25
2024-03-11T07:21:47.993Z,20.58
2024-03-11T07:26:45.503Z,23.05
2024-03-11T07:31:42.466Z,21.52
2024-03-11T07:36:48.222Z,24.02
2024-03-11T07:41:46.153Z,20.63
2024-03-11T07:46:45.860Z,18.23
2024-03-11T07:51:42.821Z,19.10
2024-03-11T07:56:41.248Z,16.85
2024-03-11T08:01:38.316Z,14.93
2024-03-11T08:06:35.820Z,23.85
2024-03-11T08:11:33.053Z,31.77
2024-03-11T08:16:30.786Z,31.98
2024-03-11T08:21:27.973Z,22.10
2024-03-11T08:26:25.555Z,31.17
2024-03-11T08:31:25.858Z,29.77
2024-03-11T08:36:26.556Z,25.75
2024-03-11T08:41:24.416Z,31.48
2024-03-11T08:46:21.318Z,23.05
2024-03-11T08:51:18.332Z,21.50
2024-03-11T08:56:16.004Z,20.50
2024-03-11T09:01:13.381Z,20.58
2024-03-11T09:06:11.990Z,23.17
2024-03-11T09:11:12.504Z,24.17
2024-03-11T09:16:12.740Z,22.65
2024-03-11T09:21:11.350Z,21.85
2024-03-11T09:26:11.008Z,25.92
2024-03-11T09:31:08.937Z,24.30
2024-03-11T09:36:11.149Z,30.58
2024-03-11T09:41:15.490Z,25.70
2024-03-11T09:46:14.991Z,27.75
2024-03-11T09:51:16.626Z,25.67
2024-03-11T09:56:15.614Z,26.52
2024-03-11T10:01:17.479Z,30.38
2024-03-11T10:06:16.716Z,30.60
2024-03-11T10:11:16.379Z,30.75
2024-03-11T10:16:17.470Z,34.15
2024-03-11T10:21:17.953Z,28.88
2024-03-11T10:26:18.164Z,30.33
2024-03-11T10:31:24.747Z,27.33
2024-03-11T10:36:25.517Z,26.92
2024-03-11T10:41:23.886Z,30.83
2024-03-11T10:46:23.046Z,26.02
2024-03-11T10:51:22.331Z,24.23
2024-03-11T10:56:21.056Z,26.90
2024-03-11T11:01:22.362Z,30.27
2024-03-11T11:06:27.860Z,30.52
2024-03-11T11:11:27.449Z,28.88
2024-03-11T11:16:28.357Z,35.75
2024-03-11T11:21:30.659Z,31.10
2024-03-11T11:26:53.357Z,36.80
2024-03-11T11:32:01.190Z,29.50
2024-03-11T11:37:04.347Z,27.00
2024-03-11T11:42:07.591Z,31.67
2024-03-11T11:47:09.099Z,28.98
2024-03-11T11:52:08.658Z,26.08
2024-03-11T11:57:11.456Z,25.80
2024-03-11T12:02:17.570Z,23.25
2024-03-11T12:07:15.855Z,33.95
2024-03-11T12:12:14.982Z,28.85
2024-03-11T12:17:12.804Z,26.73
2024-03-11T12:22:14.293Z,24.00
2024-03-11T12:27:13.901Z,20.15
2024-03-11T12:32:12.546Z,19.20
2024-03-11T12:37:10.542Z,19.00
2024-03-11T12:42:09.733Z,24.20
2024-03-11T12:47:06.673Z,19.35
2024-03-11T12:52:08.912Z,21.90
2024-03-11T12:57:08.106Z,19.95
2024-03-11T13:02:13.281Z,26.55
2024-03-11T13:07:12.817Z,18.33
2024-03-11T13:12:19.656Z,16.30
2024-03-11T13:17:18.764Z,15.80
2024-03-11T13:22:20.412Z,13.18
2024-03-11T13:27:18.346Z,14.45
2024-03-11T13:32:18.794Z,15.05
2024-03-11T13:37:18.389Z,14.57
2024-03-11T13:42:16.018Z,13.63
2024-03-11T13:47:14.781Z,10.65
2024-03-11T13:52:12.280Z,12.45
2024-03-11T13:57:11.500Z,15.02
2024-03-11T14:02:13.319Z,13.90
2024-03-11T14:07:10.475Z,10.90
2024-03-11T14:12:08.167Z,11.15
2024-03-11T14:17:08.443Z,13.50
2024-03-11T14:22:07.707Z,11.73
2024-03-11T14:27:04.826Z,14.20
2024-03-11T14:32:01.804Z,14.45
2024-03-11T14:36:59.926Z,10.02
2024-03-11T14:41:57.160Z,15.38
2024-03-11T14:46:59.637Z,12.68
2024-03-11T14:51:57.609Z,10.50
2024-03-11T14:56:55.801Z,13.55
2024-03-11T15:01:54.573Z,13.30
2024-03-11T15:06:52.123Z,13.15
2024-03-11T15:11:52.873Z,15.00
2024-03-11T15:16:56.487Z,15.25
2024-03-11T15:21:53.911Z,21.80
2024-03-11T15:26:52.993Z,13.40
2024-03-11T15:32:57.338Z,18.45
2024-03-11T15:37:58.466Z,18.25
2024-03-11T15:42:55.766Z,18.10
2024-03-11T15:47:53.710Z,21.30
2024-03-11T15:52:51.238Z,21.50
2024-03-11T15:57:48.416Z,18.27
2024-03-11T16:02:46.583Z,15.35
2024-03-11T16:07:45.925Z,15.30
2024-03-11T16:12:44.971Z,16.25
2024-03-11T16:17:42.425Z,15.05
2024-03-11T16:22:40.698Z,16.67
2024-03-11T16:27:40.228Z,14.73
2024-03-11T16:32:40.431Z,16.00
2024-03-11T16:37:42.508Z,15.27
2024-03-11T16:42:42.049Z,12.93
2024-03-11T16:47:41.644Z,14.32
2024-03-11T16:52:41.287Z,12.60
2024-03-11T16:57:39.819Z,14.25
2024-03-11T17:02:43.126Z,21.20
2024-03-11T17:07:42.401Z,19.42
2024-03-11T17:12:44.030Z,15.43
2024-03-11T17:17:46.533Z,14.38
2024-03-11T17:22:46.422Z,16.83
2024-03-11T17:27:45.802Z,19.50
2024-03-11T17:32:44.414Z,17.92
2024-03-11T17:37:42.011Z,17.85
2024-03-11T17:42:41.682Z,17.02
2024-03-11T17:47:40.172Z,18.17
2024-03-11T17:52:44.873Z,14.18
2024-03-11T17:57:44.406Z,13.83
2024-03-11T18:02:45.320Z,18.40
2024-03-11T18:07:44.285Z,13.25
2024-03-11T18:12:44.983Z,9.00
2024-03-11T18:17:43.342Z,12.88
2024-03-11T18:22:48.019Z,13.18
2024-03-11T18:28:02.659Z,18.70
2024-03-11T18:33:14.313Z,14.57
2024-03-11T18:38:27.078Z,12.32
2024-03-11T18:43:31.568Z,13.15
2024-03-11T18:48:48.835Z,12.98
2024-03-11T18:53:49.310Z,12.13
2024-03-11T18:59:06.427Z,15.82
2024-03-11T19:04:09.026Z,17.73
2024-03-11T19:09:09.037Z,15.35
2024-03-11T19:14:08.831Z,13.35
2024-03-11T19:19:08.970Z,14.98
2024-03-11T19:24:09.213Z,23.50
2024-03-11T19:29:16.828Z,15.00
2024-03-11T19:34:22.844Z,17.30
2024-03-11T19:39:56.836Z,20.70
2024-03-11T19:45:49.922Z,19.25
2024-03-11T19:51:28.906Z,18.15
2024-03-11T19:57:28.674Z,18.17
2024-03-11T20:02:58.717Z,19.65
2024-03-11T20:08:30.953Z,15.38
2024-03-11T20:14:17.495Z,14.23
2024-03-11T20:20:10.262Z,16.02
2024-03-11T20:26:01.658Z,14.88
2024-03-11T20:31:09.932Z,16.50
2024-03-11T20:36:12.386Z,14.68
2024-03-11T20:41:20.104Z,17.90
2024-03-11T20:46:31.800Z,14.93
2024-03-11T20:51:30.618Z,16.58
2024-03-11T20:56:40.909Z,16.42
2024-03-11T21:01:56.410Z,12.80
2024-03-11T21:07:05.942Z,15.43
2024-03-11T21:12:09.225Z,16.08
2024-03-11T21:17:32.339Z,13.88
2024-03-11T21:22:37.273Z,12.25
2024-03-11T21:27:39.410Z,13.07
2024-03-11T21:32:38.783Z,13.52
2024-03-11T21:37:40.120Z,13.05
2024-03-11T21:42:38.046Z,11.18
2024-03-11T21:47:36.373Z,11.50
2024-03-11T21:52:35.230Z,9.68
2024-03-11T21:57:33.175Z,17.23
2024-03-11T22:02:32.346Z,10.57
2024-03-11T22:07:30.309Z,12.07
2024-03-11T22:12:28.935Z,14.18
2024-03-11T22:17:27.400Z,14.52
2024-03-11T22:22:25.286Z,15.23
2024-03-11T22:27:23.252Z,14.52
2024-03-11T22:32:22.648Z,14.45
2024-03-11T22:37:22.095Z,16.00
2024-03-11T22:42:20.400Z,14.68
2024-03-11T22:47:22.818Z,15.13
2024-03-11T22:52:23.306Z,17.27
2024-03-11T22:57:23.694Z,14.82
2024-03-11T23:02:24.203Z,15.82
2024-03-11T23:07:25.215Z,14.40
2024-03-11T23:12:25.264Z,15.43
2024-03-11T23:17:29.232Z,19.90
2024-03-11T23:22:30.703Z,16.25
2024-03-11T23:27:48.406Z,16.30
2024-03-11T23:32:54.236Z,15.52
2024-03-11T23:38:18.162Z,13.07
2024-03-11T23:44:06.616Z,14.82
2024-03-11T23:49:55.180Z,14.85
2024-03-11T23:55:49.554Z,14.35
